Time;durP1;ratioP1;P1;durP2;ratioP2;P2;SDS_P1;SDS_P2;PMS_P1;PMS_P2;Temp;Humidity;BMP_temperature;BMP_pressure;BME280_temperature;BME280_humidity;BME280_pressure;Samples;Min_cycle;Max_cycle;Signal;HPM_P1;HPM_P2
2021/01/08 00:00:16;;;;;;;13.20;9.75;;;;;;;1.34;100.00;100713.94;6246140;22;20496;-88
2021/01/08 00:02:42;;;;;;;14.60;10.27;;;;;;;1.30;100.00;100705.38;6218598;22;20074;-86
2021/01/08 00:05:08;;;;;;;13.05;8.57;;;;;;;1.25;100.00;100702.19;6242049;22;20020;-88
2021/01/08 00:07:37;;;;;;;13.15;9.40;;;;;;;1.26;100.00;100711.81;6240195;22;20008;-87
2021/01/08 00:10:05;;;;;;;14.52;9.98;;;;;;;1.27;100.00;100713.53;6266661;22;20090;-86
2021/01/08 00:12:32;;;;;;;14.43;8.55;;;;;;;1.24;100.00;100712.91;6242262;23;20013;-88
2021/01/08 00:14:58;;;;;;;12.80;9.02;;;;;;;1.21;100.00;100708.66;6269138;22;20061;-87
2021/01/08 00:17:27;;;;;;;15.10;9.70;;;;;;;1.24;100.00;100711.09;6241587;23;20024;-88
2021/01/08 00:19:52;;;;;;;;;;;;;;;1.24;100.00;100704.97;6239272;22;20042;-89
2021/01/08 00:22:18;;;;;;;16.83;10.05;;;;;;;1.15;100.00;100711.69;6243053;23;20318;-87
2021/01/08 00:24:44;;;;;;;16.95;11.02;;;;;;;1.22;100.00;100704.22;6215917;22;20120;-88
2021/01/08 00:27:09;;;;;;;14.73;10.15;;;;;;;1.19;100.00;100709.72;6243107;22;20020;-85
2021/01/08 00:29:34;;;;;;;15.05;10.50;;;;;;;1.23;100.00;100705.88;6240829;22;20039;-87
2021/01/08 00:32:00;;;;;;;13.73;9.10;;;;;;;1.12;100.00;100704.84;6217038;22;20032;-90
2021/01/08 00:34:25;;;;;;;14.75;9.95;;;;;;;1.21;100.00;100703.38;6241710;23;20383;-87
2021/01/08 00:36:52;;;;;;;15.23;10.07;;;;;;;1.22;100.00;100714.78;6242215;22;20594;-90
2021/01/08 00:39:19;;;;;;;16.08;10.50;;;;;;;1.24;100.00;100712.91;6241385;23;20351;-89
2021/01/08 00:41:45;;;;;;;16.95;10.70;;;;;;;1.24;100.00;100719.03;6243426;22;20099;-89
2021/01/08 00:44:10;;;;;;;17.85;10.63;;;;;;;1.18;100.00;100714.16;6243181;22;20024;-87
2021/01/08 00:46:40;;;;;;;17.58;11.60;;;;;;;1.24;100.00;100719.03;6241623;23;20091;-87
2021/01/08 00:49:07;;;;;;;16.00;10.93;;;;;;;1.22;100.00;100712.97;6298213;22;20381;-87
2021/01/08 00:51:33;;;;;;;15.85;10.55;;;;;;;1.25;100.00;100722.50;6274120;22;20014;-87
2021/01/08 00:53:59;;;;;;;15.85;11.40;;;;;;;1.22;100.00;100722.72;6273127;22;20520;-88
2021/01/08 00:56:25;;;;;;;18.48;11.48;;;;;;;1.25;100.00;100719.84;6272255;22;20015;-85
2021/01/08 00:58:50;;;;;;;15.73;10.70;;;;;;;1.21;100.00;100721.00;6272074;22;20023;-87
2021/01/08 01:01:17;;;;;;;19.25;11.80;;;;;;;1.21;100.00;100723.66;6274193;22;20026;-87
2021/01/08 01:03:42;;;;;;;17.75;12.10;;;;;;;1.24;100.00;100719.03;6271630;22;20066;-88
2021/01/08 01:06:08;;;;;;;16.25;11.48;;;;;;;1.23;100.00;100727.03;6273369;22;20016;-87
2021/01/08 01:08:33;;;;;;;17.63;10.77;;;;;;;1.20;100.00;100720.16;6272454;22;20015;-89
2021/01/08 01:10:59;;;;;;;17.88;11.93;;;;;;;1.23;100.00;100727.03;6246231;22;20035;-89
2021/01/08 01:13:25;;;;;;;19.27;11.70;;;;;;;1.19;100.00;100725.56;6274648;22;20043;-87
2021/01/08 01:15:51;;;;;;;18.30;12.18;;;;;;;1.18;100.00;100723.84;6257059;22;20022;-90
2021/01/08 01:18:16;;;;;;;18.77;12.00;;;;;;;1.19;100.00;100729.06;6273990;22;20014;-86
2021/01/08 01:20:42;;;;;;;18.15;11.70;;;;;;;1.20;100.00;100725.44;6272058;22;20016;-88
2021/01/08 01:23:07;;;;;;;15.73;11.25;;;;;;;1.22;100.00;100728.84;6272541;22;20012;-89
2021/01/08 01:25:33;;;;;;;17.23;10.25;;;;;;;1.20;100.00;100732.53;6272553;22;20011;-89
2021/01/08 01:27:58;;;;;;;18.00;12.20;;;;;;;1.16;100.00;100728.44;6271853;22;20026;-88
2021/01/08 01:30:24;;;;;;;19.30;12.10;;;;;;;1.15;100.00;100732.00;6248984;22;20010;-90
2021/01/08 01:32:49;;;;;;;18.05;11.05;;;;;;;1.16;100.00;100739.84;6272147;22;20076;-88
2021/01/08 01:35:15;;;;;;;17.83;10.98;;;;;;;1.13;100.00;100737.41;6272671;22;20461;-90
2021/01/08 01:37:40;;;;;;;19.38;11.63;;;;;;;1.18;100.00;100745.88;6271989;22;20486;-88
2021/01/08 01:40:06;;;;;;;19.85;12.40;;;;;;;1.15;100.00;100739.94;6248594;22;20055;-87
2021/01/08 01:42:32;;;;;;;17.70;11.13;;;;;;;1.13;100.00;100742.69;6297819;22;20346;-88
2021/01/08 01:44:57;;;;;;;18.40;11.20;;;;;;;1.12;100.00;100740.97;6271987;22;20016;-88
2021/01/08 01:47:23;;;;;;;17.27;10.45;;;;;;;1.09;100.00;100754.41;6297822;22;20012;-87
2021/01/08 01:49:48;;;;;;;18.17;11.60;;;;;;;1.12;100.00;100744.50;6269632;22;20079;-89
2021/01/08 01:52:14;;;;;;;18.13;11.82;;;;;;;1.13;100.00;100748.81;6246892;22;20430;-87
2021/01/08 01:54:39;;;;;;;17.60;10.48;;;;;;;1.10;100.00;100758.78;6247694;22;20016;-88
2021/01/08 01:57:05;;;;;;;17.67;11.20;;;;;;;1.05;100.00;100751.13;6274747;22;20084;-87
2021/01/08 01:59:30;;;;;;;19.75;11.73;;;;;;;1.13;100.00;100748.81;6298415;22;20027;-86
2021/01/08 02:01:59;;;;;;;17.92;11.35;;;;;;;1.11;100.00;100755.16;6248285;22;20020;-87
2021/01/08 02:04:25;;;;;;;18.15;11.35;;;;;;;1.06;100.00;100750.19;6276846;22;20040;-88
2021/01/08 02:06:51;;;;;;;19.10;11.70;;;;;;;1.09;100.00;100752.63;6271283;22;20043;-90
2021/01/08 02:09:17;;;;;;;17.75;10.50;;;;;;;1.05;100.00;100753.78;6273852;22;20018;-89
2021/01/08 02:11:47;;;;;;;19.08;10.70;;;;;;;1.01;100.00;100754.94;6274546;22;20031;-88
2021/01/08 02:14:17;;;;;;;19.00;11.32;;;;;;;1.04;100.00;100759.19;6273801;22;20050;-85
2021/01/08 02:16:45;;;;;;;16.95;10.55;;;;;;;1.03;100.00;100760.13;6273628;22;20047;-88
2021/01/08 02:19:18;;;;;;;15.57;9.43;;;;;;;0.97;100.00;100761.38;6274968;22;20030;-90
2021/01/08 02:21:52;;;;;;;17.17;10.40;;;;;;;1.01;100.00;100757.59;6273217;22;20043;-87
2021/01/08 02:25:02;;;;;;;18.33;10.65;;;;;;;1.00;100.00;100758.53;6271914;22;20059;-87
2021/01/08 02:27:32;;;;;;;17.00;9.85;;;;;;;0.99;100.00;100756.84;6224578;22;20047;-88
2021/01/08 02:29:58;;;;;;;19.50;10.98;;;;;;;0.98;100.00;100754.28;6266237;22;20343;-88
2021/01/08 02:32:24;;;;;;;17.48;10.18;;;;;;;0.94;100.00;100761.59;6243112;23;20016;-88
2021/01/08 02:35:01;;;;;;;18.23;10.73;;;;;;;1.00;100.00;100758.53;6240940;22;20020;-86
2021/01/08 02:37:41;;;;;;;21.17;12.52;;;;;;;1.03;100.00;100760.97;6241470;23;20020;-86
2021/01/08 02:40:13;;;;;;;17.58;10.30;;;;;;;0.94;100.00;100764.22;6271686;22;20482;-86
2021/01/08 02:42:42;;;;;;;18.45;11.38;;;;;;;0.95;100.00;100760.66;6269057;22;20008;-86
2021/01/08 02:45:08;;;;;;;19.55;11.10;;;;;;;1.01;100.00;100765.53;6272854;22;20438;-86
2021/01/08 02:47:34;;;;;;;19.85;11.15;;;;;;;1.01;100.00;100770.81;6296263;22;20074;-87
2021/01/08 02:50:06;;;;;;;19.80;11.15;;;;;;;0.94;100.00;100774.78;6270556;22;20020;-86
2021/01/08 02:52:38;;;;;;;21.83;12.85;;;;;;;0.97;100.00;100771.94;6273390;22;20019;-87
2021/01/08 02:55:05;;;;;;;21.65;11.82;;;;;;;0.96;100.00;100766.78;6270707;22;20023;-86
2021/01/08 02:57:32;;;;;;;19.95;10.50;;;;;;;0.95;100.00;100768.59;6269971;22;20016;-87
2021/01/08 03:00:04;;;;;;;21.17;11.25;;;;;;;0.97;100.00;100774.59;6270310;22;20451;-86
2021/01/08 03:02:32;;;;;;;21.50;12.25;;;;;;;0.96;100.00;100775.56;6296468;22;20026;-88
2021/01/08 03:04:59;;;;;;;21.75;12.10;;;;;;;1.01;100.00;100776.09;6272606;22;20019;-87
2021/01/08 03:07:26;;;;;;;21.67;11.20;;;;;;;0.99;100.00;100775.34;6271962;22;20022;-90
2021/01/08 03:09:52;;;;;;;23.42;12.57;;;;;;;0.94;100.00;100784.53;6270593;22;20020;-90
2021/01/08 03:12:20;;;;;;;20.10;12.40;;;;;;;0.99;100.00;100777.97;6271984;22;20334;-87
2021/01/08 03:14:47;;;;;;;21.35;11.70;;;;;;;0.99;100.00;100782.44;6270111;22;20015;-88
2021/01/08 03:17:19;;;;;;;22.38;12.68;;;;;;;0.99;100.00;100783.28;6271203;22;20502;-87
2021/01/08 03:19:54;;;;;;;19.80;11.38;;;;;;;1.02;100.00;100783.06;6295394;22;20028;-88
2021/01/08 03:22:20;;;;;;;20.88;11.43;;;;;;;0.98;100.00;100780.72;6271719;22;20077;-86
2021/01/08 03:24:51;;;;;;;20.90;11.38;;;;;;;1.03;100.00;100781.25;6296357;22;20377;-87
2021/01/08 03:27:20;;;;;;;20.90;11.43;;;;;;;1.01;100.00;100780.53;6271727;22;20008;-89
2021/01/08 03:29:46;;;;;;;22.63;12.65;;;;;;;0.97;100.00;100776.38;6271422;22;20004;-88
2021/01/08 03:32:16;;;;;;;19.35;11.30;;;;;;;0.99;100.00;100777.16;6272768;22;20027;-89
2021/01/08 03:34:49;;;;;;;21.85;12.35;;;;;;;0.99;100.00;100775.34;6270836;22;20851;-87
2021/01/08 03:37:23;;;;;;;17.60;10.27;;;;;;;0.97;100.00;100779.03;6297973;22;20473;-88
2021/01/08 03:40:07;;;;;;;21.33;11.32;;;;;;;0.99;100.00;100774.50;6270620;22;20023;-89
2021/01/08 03:42:41;;;;;;;20.13;11.68;;;;;;;1.00;100.00;100779.66;6271642;22;20019;-85
2021/01/08 03:45:07;;;;;;;20.85;11.30;;;;;;;0.98;100.00;100773.66;6297238;22;20555;-88
2021/01/08 03:47:42;;;;;;;17.90;10.35;;;;;;;0.96;100.00;100772.06;6295295;22;20450;-87
2021/01/08 03:50:09;;;;;;;20.42;10.57;;;;;;;0.96;100.00;100778.19;6273425;22;20090;-88
2021/01/08 03:52:40;;;;;;;17.30;10.50;;;;;;;0.96;100.00;100778.19;6269864;22;20027;-89
2021/01/08 03:55:12;;;;;;;17.10;9.43;;;;;;;0.93;100.00;100781.03;6273711;22;20073;-87
2021/01/08 03:57:52;;;;;;;19.30;10.82;;;;;;;0.98;100.00;100784.22;6249465;22;20016;-87
2021/01/08 04:00:29;;;;;;;24.30;11.55;;;;;;;0.97;100.00;100785.16;6246482;22;20019;-89
2021/01/08 04:03:14;;;;;;;20.83;10.13;;;;;;;0.95;100.00;100781.78;6270479;22;20031;-89
2021/01/08 04:05:46;;;;;;;18.00;10.18;;;;;;;0.93;100.00;100778.41;6271300;22;20086;-86
2021/01/08 04:08:14;;;;;;;18.42;10.27;;;;;;;0.93;100.00;100788.97;6274006;22;20288;-89
2021/01/08 04:10:42;;;;;;;18.27;10.65;;;;;;;0.95;100.00;100783.56;6272084;22;20079;-88
2021/01/08 04:13:08;;;;;;;20.48;9.93;;;;;;;0.88;100.00;100791.06;6275408;22;20333;-89
2021/01/08 04:15:33;;;;;;;18.02;9.57;;;;;;;0.91;100.00;100788.22;6247454;22;20027;-88
2021/01/08 04:17:58;;;;;;;16.80;8.95;;;;;;;0.84;100.00;100789.59;6298075;22;20092;-92
2021/01/08 04:20:25;;;;;;;21.50;10.10;;;;;;;0.82;100.00;100789.66;6246474;22;20046;-86
2021/01/08 04:22:50;;;;;;;18.45;10.50;;;;;;;0.84;100.00;100786.94;6296370;22;20016;-89
2021/01/08 04:25:16;;;;;;;18.67;10.05;;;;;;;0.83;100.00;100780.78;6273417;22;20020;-86
2021/01/08 04:27:41;;;;;;;19.65;10.50;;;;;;;0.89;100.00;100784.81;6272840;22;20012;-86
2021/01/08 04:30:07;;;;;;;20.45;9.95;;;;;;;0.87;100.00;100792.03;6299266;22;20046;-85
2021/01/08 04:32:32;;;;;;;21.83;11.57;;;;;;;0.88;100.00;100791.06;6273250;22;20020;-89
2021/01/08 04:34:58;;;;;;;17.98;9.65;;;;;;;0.88;100.00;100799.00;6298875;22;20015;-87
2021/01/08 04:37:24;;;;;;;18.48;10.15;;;;;;;0.87;100.00;100794.66;6297168;22;20082;-89
2021/01/08 04:39:49;;;;;;;20.67;11.13;;;;;;;0.88;100.00;100801.63;6269617;22;20050;-87
2021/01/08 04:42:15;;;;;;;22.05;11.73;;;;;;;0.84;100.00;100806.28;6271847;22;20012;-86
2021/01/08 04:44:41;;;;;;;21.33;12.13;;;;;;;0.89;100.00;100803.31;6271978;22;20514;-88
2021/01/08 04:47:10;;;;;;;21.52;12.02;;;;;;;0.87;100.00;100803.44;6272949;22;20320;-91
2021/01/08 04:49:38;;;;;;;21.38;10.82;;;;;;;0.87;100.00;100811.34;6269494;22;20076;-86
2021/01/08 04:52:08;;;;;;;22.40;11.55;;;;;;;0.86;100.00;100808.81;6270953;22;20015;-87
2021/01/08 04:54:49;;;;;;;24.02;13.02;;;;;;;0.92;100.00;100805.75;6270293;22;20324;-87
2021/01/08 04:57:18;;;;;;;24.02;13.55;;;;;;;0.86;100.00;100809.69;6245278;22;20026;-86
2021/01/08 04:59:46;;;;;;;21.90;12.82;;;;;;;0.85;100.00;100809.75;6269749;22;20519;-89
2021/01/08 05:02:11;;;;;;;22.15;12.68;;;;;;;0.83;100.00;100809.00;6270776;22;20032;-87
2021/01/08 05:04:59;;;;;;;23.27;12.02;;;;;;;0.87;100.00;100814.00;6269910;22;20019;-89
2021/01/08 05:07:27;;;;;;;22.20;11.45;;;;;;;0.81;100.00;100810.94;6271862;22;20016;-87
2021/01/08 05:09:54;;;;;;;22.42;13.00;;;;;;;0.90;100.00;100810.31;6270891;22;20022;-87
2021/01/08 05:12:40;;;;;;;24.85;12.43;;;;;;;0.82;100.00;100812.59;6271738;22;20443;-89
2021/01/08 05:15:13;;;;;;;21.35;10.98;;;;;;;0.82;100.00;100818.75;6270346;22;20066;-89
2021/01/08 05:17:43;;;;;;;22.65;12.57;;;;;;;0.79;100.00;100816.28;6268016;22;20019;-88
2021/01/08 05:20:14;;;;;;;21.77;11.82;;;;;;;0.85;100.00;100813.25;6272967;22;20023;-86
2021/01/08 05:22:59;;;;;;;19.13;10.82;;;;;;;0.81;100.00;100816.22;6255903;22;20384;-90
2021/01/08 05:25:32;;;;;;;20.30;11.65;;;;;;;0.80;100.00;100815.34;6271305;22;20349;-87
2021/01/08 05:28:00;;;;;;;20.20;11.60;;;;;;;0.84;100.00;100808.09;6269932;22;20046;-87
2021/01/08 05:30:29;;;;;;;17.90;10.88;;;;;;;0.82;100.00;100818.75;6272035;22;20016;-89
2021/01/08 05:33:05;;;;;;;20.90;12.32;;;;;;;0.90;100.00;100823.53;6270490;22;20098;-88
2021/01/08 05:35:35;;;;;;;22.48;12.65;;;;;;;0.92;100.00;100831.34;6268489;22;20044;-87
2021/01/08 05:38:21;;;;;;;21.55;12.25;;;;;;;0.82;100.00;100826.66;6269035;22;20015;-88
2021/01/08 05:41:05;;;;;;;19.70;11.40;;;;;;;0.89;100.00;100829.72;6268524;22;20019;-88
2021/01/08 05:43:42;;;;;;;20.65;10.98;;;;;;;0.85;100.00;100829.09;6294779;22;20015;-89
2021/01/08 05:46:42;;;;;;;19.55;10.73;;;;;;;0.84;100.00;100826.56;6269262;22;20016;-88
2021/01/08 05:49:08;;;;;;;20.08;11.88;;;;;;;0.87;100.00;100829.84;6160193;22;20461;-90
2021/01/08 05:51:38;;;;;;;20.67;11.63;;;;;;;0.92;100.00;100834.81;6272763;22;20073;-86
2021/01/08 05:54:04;;;;;;;19.85;11.80;;;;;;;0.92;100.00;100833.97;6273911;22;20003;-87
2021/01/08 05:56:35;;;;;;;20.20;11.38;;;;;;;0.86;100.00;100830.81;6272966;22;20020;-90
2021/01/08 05:59:04;;;;;;;19.75;11.85;;;;;;;0.89;100.00;100835.03;6269777;22;20032;-86
2021/01/08 06:01:32;;;;;;;23.73;12.48;;;;;;;0.87;100.00;100840.41;6296204;22;20019;-89
2021/01/08 06:04:02;;;;;;;22.00;12.00;;;;;;;0.88;100.00;100843.91;6269074;22;20043;-88
2021/01/08 06:06:48;;;;;;;20.48;11.35;;;;;;;0.91;100.00;100841.06;6270755;22;20020;-88
2021/01/08 06:09:15;;;;;;;23.13;13.02;;;;;;;0.86;100.00;100843.16;6196976;22;20020;-87
2021/01/08 06:11:44;;;;;;;23.42;13.70;;;;;;;0.91;100.00;100849.00;6267531;22;20023;-89
2021/01/08 06:14:12;;;;;;;22.92;13.32;;;;;;;0.96;100.00;100844.25;6268904;22;20481;-87
2021/01/08 06:16:48;;;;;;;20.80;12.27;;;;;;;0.93;100.00;100852.38;6268174;22;20018;-88
2021/01/08 06:19:15;;;;;;;22.02;13.32;;;;;;;0.92;100.00;100849.81;6242600;22;20027;-89
2021/01/08 06:21:46;;;;;;;20.75;13.52;;;;;;;0.95;100.00;100850.50;6295747;22;20891;-86
2021/01/08 06:24:12;;;;;;;19.52;11.20;;;;;;;0.92;100.00;100848.03;6272457;22;20012;-88
2021/01/08 06:26:40;;;;;;;20.58;12.82;;;;;;;0.88;100.00;100851.84;6271129;22;20024;-89
2021/01/08 06:29:26;;;;;;;18.90;11.57;;;;;;;0.88;100.00;100857.13;6270873;22;20019;-87
2021/01/08 06:32:03;;;;;;;21.65;11.63;;;;;;;0.94;100.00;100858.50;6271562;22;20073;-89
2021/01/08 06:34:30;;;;;;;21.75;13.70;;;;;;;0.90;100.00;100863.16;6269611;22;20020;-88
2021/01/08 06:37:08;;;;;;;20.55;12.00;;;;;;;0.89;100.00;100864.09;6269826;22;20016;-88
2021/01/08 06:39:35;;;;;;;21.10;12.27;;;;;;;0.93;100.00;100873.53;6270517;22;20103;-89
2021/01/08 06:42:01;;;;;;;24.35;13.57;;;;;;;0.90;100.00;100871.09;6270704;22;20015;-89
2021/01/08 06:44:38;;;;;;;25.33;13.38;;;;;;;0.95;100.00;100868.13;6296426;22;20486;-86
2021/01/08 06:47:28;;;;;;;21.80;13.23;;;;;;;0.90;100.00;100871.94;6271988;22;20327;-90
2021/01/08 06:49:57;;;;;;;25.83;14.57;;;;;;;0.95;100.00;100884.84;6272447;22;20016;-89
2021/01/08 06:52:23;;;;;;;25.75;15.23;;;;;;;0.94;100.00;100877.84;6273246;22;20015;-89
2021/01/08 06:54:55;;;;;;;23.02;14.05;;;;;;;0.94;100.00;100880.50;6271377;22;20051;-92
2021/01/08 06:57:21;;;;;;;23.67;13.40;;;;;;;0.93;100.00;100881.44;6272181;22;20020;-88
2021/01/08 07:00:01;;;;;;;20.08;12.05;;;;;;;0.89;100.00;100882.56;6271300;22;20020;-91
2021/01/08 07:02:30;;;;;;;26.33;15.07;;;;;;;0.91;100.00;100883.34;6270013;22;20402;-88
2021/01/08 07:04:57;;;;;;;;;;;;;;;0.95;100.00;100891.91;6295661;22;20389;-88
2021/01/08 07:07:27;;;;;;;24.77;14.80;;;;;;;0.90;100.00;100885.13;6292205;22;19911;-88
2021/01/08 07:09:54;;;;;;;26.05;14.18;;;;;;;0.88;100.00;100887.03;6266797;22;20497;-86
2021/01/08 07:12:26;;;;;;;23.83;13.32;;;;;;;0.89;100.00;100891.38;6264047;22;20050;-88
2021/01/08 07:14:54;;;;;;;22.52;12.75;;;;;;;0.89;100.00;100894.03;6240312;22;20013;-85
2021/01/08 07:17:33;;;;;;;23.92;14.75;;;;;;;0.95;100.00;100902.47;6266742;22;20031;-88
2021/01/08 07:19:59;;;;;;;;;;;;;;;0.95;100.00;100911.28;6265951;22;20024;-90
2021/01/08 07:22:40;;;;;;;22.50;12.90;;;;;;;0.85;100.00;100916.28;6291203;22;20353;-88
2021/01/08 07:25:13;;;;;;;26.88;14.73;;;;;;;0.89;100.00;100914.28;6260339;22;20400;-91
2021/01/08 07:27:43;;;;;;;24.73;14.13;;;;;;;0.89;100.00;100915.16;6287363;22;20401;-88
2021/01/08 07:30:09;;;;;;;;;;;;;;;0.96;100.00;100920.88;6267314;22;20016;-86
2021/01/08 07:32:37;;;;;;;26.10;15.63;;;;;;;0.90;100.00;100922.13;6291363;22;19907;-89
2021/01/08 07:35:23;;;;;;;22.48;13.65;;;;;;;0.89;100.00;100923.09;6263478;22;20446;-88
2021/01/08 07:38:06;;;;;;;24.98;14.20;;;;;;;0.92;100.00;100929.94;6263862;22;20421;-86
2021/01/08 07:40:36;;;;;;;27.90;15.13;;;;;;;0.95;100.00;100932.41;6291909;22;20346;-87
2021/01/08 07:43:09;;;;;;;27.17;15.48;;;;;;;1.00;100.00;100935.59;6264668;22;20442;-88
2021/01/08 07:45:53;;;;;;;28.20;15.18;;;;;;;1.02;100.00;100957.47;6264029;22;20015;-88
2021/01/08 07:48:20;;;;;;;22.77;13.32;;;;;;;0.92;100.00;100951.06;6240717;22;20465;-85
2021/01/08 07:51:05;;;;;;;22.48;14.50;;;;;;;0.98;100.00;100953.34;6265200;22;20023;-87
2021/01/08 07:53:43;;;;;;;25.17;13.63;;;;;;;1.00;100.00;100956.72;6294539;22;20008;-88
2021/01/08 07:56:25;;;;;;;23.15;12.75;;;;;;;0.96;100.00;100957.88;6240106;22;20631;-87
2021/01/08 07:59:16;;;;;;;25.13;15.63;;;;;;;0.99;100.00;100962.97;6266832;22;20024;-86
2021/01/08 08:01:51;;;;;;;25.00;14.23;;;;;;;0.99;100.00;100962.97;6268008;22;20038;-88
2021/01/08 08:04:20;;;;;;;21.75;13.38;;;;;;;1.05;100.00;100967.00;6293511;22;20019;-88
2021/01/08 08:06:47;;;;;;;25.42;15.80;;;;;;;1.09;100.00;100969.38;6269366;22;20319;-88
2021/01/08 08:09:20;;;;;;;28.08;15.95;;;;;;;1.08;100.00;100972.09;6267896;22;20015;-87
2021/01/08 08:11:51;;;;;;;26.83;15.75;;;;;;;1.12;100.00;100971.81;6240554;22;20055;-86
2021/01/08 08:14:20;;;;;;;30.63;14.73;;;;;;;1.10;100.00;100981.63;6265627;22;20047;-87
2021/01/08 08:16:45;;;;;;;45.03;23.80;;;;;;;1.14;100.00;100990.22;6263547;22;20104;-89
2021/01/08 08:19:17;;;;;;;35.80;18.90;;;;;;;1.15;100.00;100988.41;6264370;22;20615;-88
2021/01/08 08:21:51;;;;;;;26.17;15.48;;;;;;;1.16;100.00;100987.47;6288623;22;20027;-88
2021/01/08 08:24:17;;;;;;;24.70;13.65;;;;;;;1.18;100.00;100988.22;6269124;22;20019;-86
2021/01/08 08:26:44;;;;;;;23.13;12.80;;;;;;;1.13;100.00;100994.66;6261613;22;20023;-87
2021/01/08 08:29:15;;;;;;;19.77;12.00;;;;;;;1.20;100.00;101002.19;6263598;22;20338;-88
2021/01/08 08:31:44;;;;;;;20.25;13.23;;;;;;;1.22;100.00;100995.00;6263387;22;20092;-86
2021/01/08 08:34:11;;;;;;;20.88;13.93;;;;;;;1.25;100.00;101005.38;6268809;22;20020;-86
2021/01/08 08:36:38;;;;;;;21.85;13.52;;;;;;;1.28;100.00;101011.31;6266845;22;20032;-87
2021/01/08 08:39:21;;;;;;;21.30;12.82;;;;;;;1.26;100.00;101005.25;6289972;22;20272;-87
2021/01/08 08:41:48;;;;;;;18.00;11.27;;;;;;;1.23;100.00;101018.69;6282627;22;20012;-86
2021/01/08 08:44:18;;;;;;;16.02;11.05;;;;;;;1.28;100.00;101027.19;6262550;22;20038;-88
2021/01/08 08:46:49;;;;;;;17.23;10.38;;;;;;;1.26;100.00;101023.78;6264312;22;20022;-86
2021/01/08 08:49:18;;;;;;;14.50;9.68;;;;;;;1.24;100.00;101030.13;6264754;22;20462;-87
2021/01/08 08:51:49;;;;;;;17.42;10.02;;;;;;;1.26;100.00;101029.06;6282781;22;20212;-86
2021/01/08 08:54:16;;;;;;;16.17;10.70;;;;;;;1.32;100.00;101033.97;6237378;22;20015;-86
2021/01/08 08:56:55;;;;;;;17.67;11.48;;;;;;;1.35;100.00;101038.19;6262610;22;20019;-88
2021/01/08 08:59:40;;;;;;;19.27;13.20;;;;;;;1.38;100.00;101043.28;6260577;22;20019;-86
2021/01/08 09:02:26;;;;;;;18.08;11.95;;;;;;;1.35;100.00;101043.47;6261292;22;20455;-88
2021/01/08 09:05:04;;;;;;;15.93;11.63;;;;;;;1.37;100.00;101051.34;6232964;22;20091;-85
2021/01/08 09:07:38;;;;;;;18.13;12.10;;;;;;;1.39;100.00;101052.94;6234702;23;20016;-86
2021/01/08 09:10:16;;;;;;;16.98;10.95;;;;;;;1.38;100.00;101051.22;6258566;22;20111;-88
2021/01/08 09:12:47;;;;;;;17.15;11.48;;;;;;;1.40;100.00;101053.78;6234654;22;20048;-85
2021/01/08 09:15:30;;;;;;;18.40;11.52;;;;;;;1.46;100.00;101051.56;6262021;22;20371;-86
2021/01/08 09:18:17;;;;;;;17.40;11.52;;;;;;;1.47;100.00;101045.34;6233919;22;20020;-85
2021/01/08 09:20:54;;;;;;;17.45;10.55;;;;;;;1.47;100.00;101047.16;6234255;22;20023;-87
2021/01/08 09:23:21;;;;;;;16.52;10.93;;;;;;;1.46;100.00;101038.34;6234751;23;20016;-88
2021/01/08 09:25:46;;;;;;;15.93;10.45;;;;;;;1.49;100.00;101053.19;6233571;22;20016;-87
2021/01/08 09:28:17;;;;;;;15.50;10.60;;;;;;;1.52;100.00;101047.69;6234495;23;20121;-86
2021/01/08 09:30:52;;;;;;;31.70;16.42;;;;;;;1.56;100.00;101054.50;6258346;22;20087;-85
2021/01/08 09:33:17;;;;;;;16.83;10.48;;;;;;;1.55;100.00;101064.22;6236128;23;20494;-85
2021/01/08 09:35:46;;;;;;;16.55;10.82;;;;;;;1.55;100.00;101064.22;6207969;22;20074;-86
2021/01/08 09:38:15;;;;;;;15.33;10.30;;;;;;;1.52;100.00;101060.91;6235689;22;20047;-86
2021/01/08 09:40:42;;;;;;;17.75;11.52;;;;;;;1.60;100.00;101065.72;6235183;23;20278;-87
2021/01/08 09:43:16;;;;;;;16.70;11.40;;;;;;;1.57;100.00;101066.75;6234016;23;20119;-86
2021/01/08 09:45:42;;;;;;;14.15;10.00;;;;;;;1.54;100.00;101070.44;6236174;22;20016;-85
2021/01/08 09:48:20;;;;;;;16.13;10.95;;;;;;;1.58;100.00;101077.25;6235341;23;20526;-85
2021/01/08 09:50:46;;;;;;;16.53;10.83;;;;;;;1.55;100.00;101072.16;6194459;22;20451;-86
2021/01/08 09:53:11;;;;;;;17.20;10.55;;;;;;;1.52;100.00;101076.78;6230083;22;20354;-85
2021/01/08 09:55:37;;;;;;;20.35;11.60;;;;;;;1.56;100.00;101081.78;6236592;22;20016;-87
2021/01/08 09:58:03;;;;;;;19.00;11.57;;;;;;;1.56;100.00;101081.78;6253497;22;20026;-85
2021/01/08 10:00:38;;;;;;;14.52;9.88;;;;;;;1.55;100.00;101088.03;6229750;23;20063;-86
2021/01/08 10:03:04;;;;;;;15.50;10.07;;;;;;;1.53;100.00;101084.63;6262794;22;20031;-86
2021/01/08 10:05:38;;;;;;;17.20;11.40;;;;;;;1.49;100.00;101096.34;6230592;23;20028;-87
2021/01/08 10:08:04;;;;;;;17.02;11.80;;;;;;;1.50;100.00;101089.28;6245812;22;20019;-86
2021/01/08 10:10:29;;;;;;;22.90;15.65;;;;;;;1.52;100.00;101092.66;6251430;22;20022;-85
2021/01/08 10:12:56;;;;;;;21.05;13.40;;;;;;;1.47;100.00;101095.63;6241880;22;20036;-87
2021/01/08 10:15:40;;;;;;;23.63;16.38;;;;;;;1.50;100.00;101098.06;6229514;22;20082;-85
2021/01/08 10:18:22;;;;;;;20.40;14.63;;;;;;;1.51;100.00;101099.75;6247517;22;20012;-87
2021/01/08 10:20:48;;;;;;;32.92;23.58;;;;;;;1.50;100.00;101099.88;6263337;22;20022;-86
2021/01/08 10:23:16;;;;;;;24.77;17.95;;;;;;;1.50;100.00;101100.72;6263778;22;20031;-86
2021/01/08 10:25:42;;;;;;;19.08;14.35;;;;;;;1.47;100.00;101106.19;6265508;22;20068;-87
2021/01/08 10:28:12;;;;;;;21.50;15.18;;;;;;;1.55;100.00;101108.31;6266828;22;20046;-86
2021/01/08 10:30:38;;;;;;;24.92;16.08;;;;;;;1.59;100.00;101109.84;6267702;22;20677;-87
2021/01/08 10:33:03;;;;;;;27.25;17.48;;;;;;;1.57;100.00;101111.72;6265655;22;20011;-88
2021/01/08 10:35:29;;;;;;;18.92;12.98;;;;;;;1.55;100.00;101114.50;6264960;22;20016;-87
2021/01/08 10:37:54;;;;;;;21.20;14.30;;;;;;;1.60;100.00;101110.69;6266144;22;20073;-88
2021/01/08 10:40:20;;;;;;;17.33;11.63;;;;;;;1.56;100.00;101110.03;6288157;22;20020;-87
2021/01/08 10:42:45;;;;;;;15.80;11.18;;;;;;;1.59;100.00;101107.19;6267651;22;20526;-86
2021/01/08 10:45:11;;;;;;;13.55;9.50;;;;;;;1.55;100.00;101109.19;6265907;22;20108;-86
2021/01/08 10:47:36;;;;;;;13.18;8.65;;;;;;;1.61;100.00;101112.38;6265875;22;20014;-85
2021/01/08 10:50:04;;;;;;;13.80;8.85;;;;;;;1.61;100.00;101113.22;6292690;22;20019;-88
2021/01/08 10:52:29;;;;;;;11.82;8.40;;;;;;;1.61;100.00;101112.38;6266908;22;20076;-86
2021/01/08 10:54:55;;;;;;;15.18;10.60;;;;;;;1.64;100.00;101112.19;6266718;22;20042;-87
2021/01/08 10:57:20;;;;;;;15.60;11.02;;;;;;;1.71;100.00;101111.69;6260436;22;20016;-87
2021/01/08 10:59:45;;;;;;;13.40;8.93;;;;;;;1.70;100.00;101111.81;6260631;22;20099;-87
2021/01/08 11:02:11;;;;;;;12.48;9.00;;;;;;;1.73;100.00;101111.59;6242630;22;20134;-86
2021/01/08 11:04:39;;;;;;;12.30;8.50;;;;;;;1.71;100.00;101111.69;6230290;22;20012;-86
2021/01/08 11:07:05;;;;;;;9.98;7.03;;;;;;;1.65;100.00;101111.25;6232934;23;20032;-85
2021/01/08 11:09:30;;;;;;;10.27;7.75;;;;;;;1.67;100.00;101111.97;6236025;23;20047;-85
2021/01/08 11:11:55;;;;;;;12.43;8.77;;;;;;;1.73;100.00;101109.81;6260923;22;20077;-87
2021/01/08 11:14:21;;;;;;;11.68;7.63;;;;;;;1.70;100.00;101112.66;6236689;23;20020;-87
2021/01/08 11:16:47;;;;;;;11.65;8.10;;;;;;;1.75;100.00;101120.28;6235886;22;20065;-87
2021/01/08 11:19:12;;;;;;;13.55;7.70;;;;;;;1.76;100.00;101122.00;6237851;22;20032;-87
2021/01/08 11:21:37;;;;;;;13.55;9.27;;;;;;;1.77;100.00;101119.22;6236386;22;20070;-86
2021/01/08 11:24:03;;;;;;;12.68;9.00;;;;;;;1.74;100.00;101122.06;6236216;23;20425;-86